Sagittarian — WCY5210 — position and weather

sailwx.info

Track history (hours):
 
Tides and Currents Weather Stations Pressure Air Temp Water Temp Dewpoint Dewpoint Depression Visibility Wind Speed Wind Dir Waves Ship Positions

Sagittarian

Owner: TAURUS MARINE, SAN FRANCISCO, CA. More information available from US FCC via Universal Licensing System and Coast Guard Vessel Documentation Center.

Last reported at 2014-Nov-22 02:33 UTC. Time now 2014-Nov-22 03:09 UTC.
Position N 37°55' W 122°26'.

; draft 3 m.

Type: Towing. MMSI: 366969510.

Date/timePositionNaut miles runAvg speedWind from/ knotsBaromVisibWave heightAir tempDewpointWater temp
2014-Nov-22 02:33N 37°55' W 122°26'4 3.9
2014-Nov-22 01:33N 37°59' W 122°26'11 1.5
2014-Nov-21 18:27N 38°04' W 122°14'2 0.5
2014-Nov-21 15:04N 38°03' W 122°12'5 5.7
2014-Nov-21 14:10N 38°03' W 122°19'4 5.7
2014-Nov-21 13:27N 38°01' W 122°23'5 5.6
2014-Nov-21 12:33N 37°57' W 122°27'3 3.2
2014-Nov-21 11:33N 37°54' W 122°26'0 0.0
2014-Nov-21 10:33N 37°54' W 122°26'8 7.8
2014-Nov-21 09:33N 37°46' W 122°23'1 0.0
2014-Nov-20 18:33N 37°46' W 122°23'2 1.8
2014-Nov-20 17:33N 37°45' W 122°21'0 0.0
2014-Nov-20 16:33N 37°45' W 122°21'2 2.3
2014-Nov-20 15:33N 37°46' W 122°23'0 0.0
2014-Nov-20 03:08N 37°46' W 122°23'2 2.9
2014-Nov-20 02:33N 37°46' W 122°21'0 0.3
2014-Nov-20 01:33N 37°46' W 122°21'0 0.2
2014-Nov-20 00:33N 37°46' W 122°21'2 1.8
2014-Nov-19 23:33N 37°48' W 122°21'4 4.2
2014-Nov-19 22:33N 37°47' W 122°16'1 0.5
2014-Nov-19 21:33N 37°47' W 122°15'0 0.0
2014-Nov-19 20:33N 37°47' W 122°15'0 0.0
2014-Nov-19 19:33N 37°47' W 122°15'0 0.0
2014-Nov-19 18:33N 37°47' W 122°15'0 0.0
2014-Nov-19 17:33N 37°47' W 122°15'5 4.6
2014-Nov-19 16:33N 37°48' W 122°21'2 2.4
2014-Nov-19 15:33N 37°46' W 122°23'0 0.0
2014-Nov-19 14:33N 37°46' W 122°23'0 0.0
2014-Nov-19 13:33N 37°46' W 122°23'0 0.0
2014-Nov-19 12:33N 37°46' W 122°23'0 0.0
2014-Nov-19 11:33N 37°46' W 122°23'0 0.0
2014-Nov-19 10:33N 37°46' W 122°23'0 0.0
2014-Nov-19 09:33N 37°46' W 122°23'0 0.0
2014-Nov-19 08:33N 37°46' W 122°23'0 0.0
2014-Nov-19 07:33N 37°46' W 122°23'0 0.0
2014-Nov-19 06:33N 37°46' W 122°23'0 0.0
2014-Nov-19 05:33N 37°46' W 122°23'0 0.0
2014-Nov-19 04:33N 37°46' W 122°23'0 0.0
2014-Nov-19 03:33N 37°46' W 122°23'0 0.0
2014-Nov-19 02:33N 37°46' W 122°23'0 0.0
2014-Nov-19 01:33N 37°46' W 122°23'0 0.0
2014-Nov-19 00:33N 37°46' W 122°23'0 0.0
2014-Nov-18 23:33N 37°46' W 122°23'2 2.4
2014-Nov-18 22:33N 37°45' W 122°21'0 0.0
2014-Nov-18 21:33N 37°45' W 122°21'0 0.0
2014-Nov-18 20:33N 37°45' W 122°21'0 0.3
2014-Nov-18 19:33N 37°45' W 122°21'0 0.2
2014-Nov-18 18:33N 37°46' W 122°21'0 0.1
2014-Nov-18 17:33N 37°46' W 122°21'2 2.1
2014-Nov-18 16:33N 37°46' W 122°23'0 0.0
2014-Nov-18 15:33N 37°46' W 122°23'0 0.0
2014-Nov-18 14:33N 37°46' W 122°23'0 0.0
2014-Nov-18 13:33N 37°46' W 122°23'0 0.0
2014-Nov-18 12:33N 37°46' W 122°23'0 0.0
2014-Nov-18 11:33N 37°46' W 122°23'0 0.3
2014-Nov-18 10:33N 37°47' W 122°23'0 0.2
2014-Nov-18 09:33N 37°46' W 122°23'0 0.0
2014-Nov-18 08:33N 37°46' W 122°23'0 0.0
2014-Nov-18 07:33N 37°46' W 122°23'0 0.0
2014-Nov-18 06:33N 37°46' W 122°23'0 0.0
2014-Nov-18 05:33N 37°46' W 122°23'0 0.0
2014-Nov-18 04:33N 37°46' W 122°23'0 0.0
2014-Nov-18 03:33N 37°46' W 122°23'0 0.0
2014-Nov-18 02:33N 37°46' W 122°23'0 0.0
2014-Nov-18 01:33N 37°46' W 122°23'1 1.3
2014-Nov-18 00:33N 37°48' W 122°23'6 6.2
2014-Nov-17 23:33N 37°49' W 122°31'6 6.0
2014-Nov-17 22:33N 37°52' W 122°24'3 3.1
2014-Nov-17 21:28N 37°55' W 122°25'0 0.1
2014-Nov-17 20:33N 37°55' W 122°25'1 0.6
2014-Nov-17 19:33N 37°55' W 122°24'8 8.0
2014-Nov-17 18:33N 37°47' W 122°23'0 0.4
2014-Nov-17 17:33N 37°46' W 122°23'3 2.9
2014-Nov-17 16:33N 37°48' W 122°20'2 2.1
2014-Nov-17 15:33N 37°47' W 122°17'0 0.0
2014-Nov-17 14:33N 37°47' W 122°17'4 3.9
2014-Nov-17 13:33N 37°47' W 122°22'1 0.7
2014-Nov-17 12:33N 37°46' W 122°23'0 0.0
2014-Nov-17 11:33N 37°46' W 122°23'0 0.0
2014-Nov-17 10:33N 37°46' W 122°23'0 0.0
2014-Nov-17 09:33N 37°46' W 122°23'0 0.0
2014-Nov-17 08:33N 37°46' W 122°23'0 0.0
2014-Nov-17 07:33N 37°46' W 122°23'0 0.0
2014-Nov-17 06:33N 37°46' W 122°23'0 0.0
2014-Nov-17 05:33N 37°46' W 122°23'0 0.0
2014-Nov-17 04:33N 37°46' W 122°23'0 0.0
2014-Nov-17 03:33N 37°46' W 122°23'0 0.0
2014-Nov-17 02:33N 37°46' W 122°23'0 0.0
2014-Nov-17 01:33N 37°46' W 122°23'0 0.0
2014-Nov-17 00:33N 37°46' W 122°23'0 0.0
2014-Nov-16 23:33N 37°46' W 122°23'0 0.0
2014-Nov-16 22:33N 37°46' W 122°23'0 0.0
2014-Nov-16 21:33N 37°46' W 122°23'0 0.0
2014-Nov-16 20:33N 37°46' W 122°23'0 0.0
2014-Nov-16 19:33N 37°46' W 122°23'0 0.0
2014-Nov-16 18:33N 37°46' W 122°23'0 0.0
2014-Nov-16 17:33N 37°46' W 122°23'0 0.0
2014-Nov-16 16:33N 37°46' W 122°23'0 0.0
2014-Nov-16 15:33N 37°46' W 122°23'0 0.0
2014-Nov-16 14:33N 37°46' W 122°23'0 0.0
2014-Nov-16 13:33N 37°46' W 122°23'0 0.0
2014-Nov-16 12:33N 37°46' W 122°23'0 0.0
2014-Nov-16 11:33N 37°46' W 122°23'0 0.0
2014-Nov-16 10:33N 37°46' W 122°23'0 0.0
2014-Nov-16 09:33N 37°46' W 122°23'0 0.0
2014-Nov-16 08:33N 37°46' W 122°23'0 0.0
2014-Nov-16 07:33N 37°46' W 122°23'0 0.0
2014-Nov-16 06:33N 37°46' W 122°23'0 0.0
2014-Nov-16 05:34N 37°46' W 122°23'0 0.0
2014-Nov-16 04:33N 37°46' W 122°23'0 0.0
2014-Nov-16 03:33N 37°46' W 122°23'0 0.0
2014-Nov-16 02:33N 37°46' W 122°23'0 0.0
2014-Nov-16 01:33N 37°46' W 122°23'0 0.0
2014-Nov-16 00:33N 37°46' W 122°23'6 5.8
2014-Nov-15 23:33N 37°52' W 122°24'3 3.4
2014-Nov-15 22:33N 37°55' W 122°22'0 0.1
2014-Nov-15 21:33N 37°55' W 122°22'0 0.0
2014-Nov-15 20:33N 37°55' W 122°22'0 0.0
2014-Nov-15 19:33N 37°55' W 122°22'0 0.0
2014-Nov-15 18:33N 37°55' W 122°22'0 0.0
2014-Nov-15 17:33N 37°55' W 122°22'0 0.0
2014-Nov-15 16:33N 37°55' W 122°22'0 0.0
2014-Nov-15 15:33N 37°55' W 122°22'1 1.0
2014-Nov-15 14:33N 37°54' W 122°23'6 6.3
2014-Nov-15 13:33N 37°48' W 122°23'2 1.5
2014-Nov-15 12:33N 37°46' W 122°23'0 0.0
2014-Nov-15 11:33N 37°46' W 122°23'0 0.0
2014-Nov-15 10:33N 37°46' W 122°23'0 0.0
2014-Nov-15 09:33N 37°46' W 122°23'0 0.0
2014-Nov-15 08:33N 37°46' W 122°23'0 0.0
2014-Nov-15 07:33N 37°46' W 122°23'0 0.0
2014-Nov-15 06:33N 37°46' W 122°23'0 0.0
2014-Nov-15 05:33N 37°46' W 122°23'0 0.0
2014-Nov-15 04:33N 37°46' W 122°23'0 0.0
2014-Nov-15 03:33N 37°46' W 122°23'0 0.0
2014-Nov-15 02:33N 37°46' W 122°23'1 1.0
2014-Nov-15 01:33N 37°46' W 122°22'2 1.9
2014-Nov-15 00:33N 37°44' W 122°21'0 0.0
2014-Nov-14 23:33N 37°44' W 122°21'0 0.0
2014-Nov-14 22:33N 37°44' W 122°21'0 0.0
2014-Nov-14 21:33N 37°44' W 122°21'0 0.1
2014-Nov-14 20:33N 37°44' W 122°21'0 0.1
2014-Nov-14 19:33N 37°45' W 122°21'0 0.0
2014-Nov-14 18:33N 37°45' W 122°21'0 0.0
2014-Nov-14 17:33N 37°45' W 122°21'0 0.0
2014-Nov-14 16:33N 37°45' W 122°21'0 0.1
2014-Nov-14 15:33N 37°44' W 122°21'0 0.0
2014-Nov-14 14:33N 37°44' W 122°21'3 0.1
2014-Nov-13 03:21N 37°46' W 122°23'4 4.8
2014-Nov-13 02:33N 37°50' W 122°24'5 5.2
2014-Nov-13 01:33N 37°55' W 122°25'5 5.1
2014-Nov-13 00:33N 37°50' W 122°24'4 0.2
2014-Nov-12 03:34N 37°46' W 122°23'3 2.8
2014-Nov-12 02:33N 37°49' W 122°24'  
Track history (hours):
 
Tides and Currents Weather Stations Pressure Air Temp Water Temp Dewpoint Dewpoint Depression Visibility Wind Speed Wind Dir Waves Ship Positions

Sagittarian

Owner: TAURUS MARINE, SAN FRANCISCO, CA. More information available from US FCC via Universal Licensing System and Coast Guard Vessel Documentation Center.

Last reported at 2014-Nov-22 02:33 UTC. Time now 2014-Nov-22 03:09 UTC.
Position N 37°55' W 122°26'.

; draft 3 m.

Type: Towing. MMSI: 366969510.

Date/timePositionNaut miles runAvg speedWind from/ knotsBaromVisibWave heightAir tempDewpointWater temp
2014-Nov-22 02:33N 37°55' W 122°26'4 3.9
2014-Nov-22 01:33N 37°59' W 122°26'11 1.5
2014-Nov-21 18:27N 38°04' W 122°14'2 0.5
2014-Nov-21 15:04N 38°03' W 122°12'5 5.7
2014-Nov-21 14:10N 38°03' W 122°19'4 5.7
2014-Nov-21 13:27N 38°01' W 122°23'5 5.6
2014-Nov-21 12:33N 37°57' W 122°27'3 3.2
2014-Nov-21 11:33N 37°54' W 122°26'0 0.0
2014-Nov-21 10:33N 37°54' W 122°26'8 7.8
2014-Nov-21 09:33N 37°46' W 122°23'1 0.0
2014-Nov-20 18:33N 37°46' W 122°23'2 1.8
2014-Nov-20 17:33N 37°45' W 122°21'0 0.0
2014-Nov-20 16:33N 37°45' W 122°21'2 2.3
2014-Nov-20 15:33N 37°46' W 122°23'0 0.0
2014-Nov-20 03:08N 37°46' W 122°23'2 2.9
2014-Nov-20 02:33N 37°46' W 122°21'0 0.3
2014-Nov-20 01:33N 37°46' W 122°21'0 0.2
2014-Nov-20 00:33N 37°46' W 122°21'2 1.8
2014-Nov-19 23:33N 37°48' W 122°21'4 4.2
2014-Nov-19 22:33N 37°47' W 122°16'1 0.5
2014-Nov-19 21:33N 37°47' W 122°15'0 0.0
2014-Nov-19 20:33N 37°47' W 122°15'0 0.0
2014-Nov-19 19:33N 37°47' W 122°15'0 0.0
2014-Nov-19 18:33N 37°47' W 122°15'0 0.0
2014-Nov-19 17:33N 37°47' W 122°15'5 4.6
2014-Nov-19 16:33N 37°48' W 122°21'2 2.4
2014-Nov-19 15:33N 37°46' W 122°23'0 0.0
2014-Nov-19 14:33N 37°46' W 122°23'0 0.0
2014-Nov-19 13:33N 37°46' W 122°23'0 0.0
2014-Nov-19 12:33N 37°46' W 122°23'0 0.0
2014-Nov-19 11:33N 37°46' W 122°23'0 0.0
2014-Nov-19 10:33N 37°46' W 122°23'0 0.0
2014-Nov-19 09:33N 37°46' W 122°23'0 0.0
2014-Nov-19 08:33N 37°46' W 122°23'0 0.0
2014-Nov-19 07:33N 37°46' W 122°23'0 0.0
2014-Nov-19 06:33N 37°46' W 122°23'0 0.0
2014-Nov-19 05:33N 37°46' W 122°23'0 0.0
2014-Nov-19 04:33N 37°46' W 122°23'0 0.0
2014-Nov-19 03:33N 37°46' W 122°23'0 0.0
2014-Nov-19 02:33N 37°46' W 122°23'0 0.0
2014-Nov-19 01:33N 37°46' W 122°23'0 0.0
2014-Nov-19 00:33N 37°46' W 122°23'0 0.0
2014-Nov-18 23:33N 37°46' W 122°23'2 2.4
2014-Nov-18 22:33N 37°45' W 122°21'0 0.0
2014-Nov-18 21:33N 37°45' W 122°21'0 0.0
2014-Nov-18 20:33N 37°45' W 122°21'0 0.3
2014-Nov-18 19:33N 37°45' W 122°21'0 0.2
2014-Nov-18 18:33N 37°46' W 122°21'0 0.1
2014-Nov-18 17:33N 37°46' W 122°21'2 2.1
2014-Nov-18 16:33N 37°46' W 122°23'0 0.0
2014-Nov-18 15:33N 37°46' W 122°23'0 0.0
2014-Nov-18 14:33N 37°46' W 122°23'0 0.0
2014-Nov-18 13:33N 37°46' W 122°23'0 0.0
2014-Nov-18 12:33N 37°46' W 122°23'0 0.0
2014-Nov-18 11:33N 37°46' W 122°23'0 0.3
2014-Nov-18 10:33N 37°47' W 122°23'0 0.2
2014-Nov-18 09:33N 37°46' W 122°23'0 0.0
2014-Nov-18 08:33N 37°46' W 122°23'0 0.0
2014-Nov-18 07:33N 37°46' W 122°23'0 0.0
2014-Nov-18 06:33N 37°46' W 122°23'0 0.0
2014-Nov-18 05:33N 37°46' W 122°23'0 0.0
2014-Nov-18 04:33N 37°46' W 122°23'0 0.0
2014-Nov-18 03:33N 37°46' W 122°23'0 0.0
2014-Nov-18 02:33N 37°46' W 122°23'0 0.0
2014-Nov-18 01:33N 37°46' W 122°23'1 1.3
2014-Nov-18 00:33N 37°48' W 122°23'6 6.2
2014-Nov-17 23:33N 37°49' W 122°31'6 6.0
2014-Nov-17 22:33N 37°52' W 122°24'3 3.1
2014-Nov-17 21:28N 37°55' W 122°25'0 0.1
2014-Nov-17 20:33N 37°55' W 122°25'1 0.6
2014-Nov-17 19:33N 37°55' W 122°24'8 8.0
2014-Nov-17 18:33N 37°47' W 122°23'0 0.4
2014-Nov-17 17:33N 37°46' W 122°23'3 2.9
2014-Nov-17 16:33N 37°48' W 122°20'2 2.1
2014-Nov-17 15:33N 37°47' W 122°17'0 0.0
2014-Nov-17 14:33N 37°47' W 122°17'4 3.9
2014-Nov-17 13:33N 37°47' W 122°22'1 0.7
2014-Nov-17 12:33N 37°46' W 122°23'0 0.0
2014-Nov-17 11:33N 37°46' W 122°23'0 0.0
2014-Nov-17 10:33N 37°46' W 122°23'0 0.0
2014-Nov-17 09:33N 37°46' W 122°23'0 0.0
2014-Nov-17 08:33N 37°46' W 122°23'0 0.0
2014-Nov-17 07:33N 37°46' W 122°23'0 0.0
2014-Nov-17 06:33N 37°46' W 122°23'0 0.0
2014-Nov-17 05:33N 37°46' W 122°23'0 0.0
2014-Nov-17 04:33N 37°46' W 122°23'0 0.0
2014-Nov-17 03:33N 37°46' W 122°23'0 0.0
2014-Nov-17 02:33N 37°46' W 122°23'0 0.0
2014-Nov-17 01:33N 37°46' W 122°23'0 0.0
2014-Nov-17 00:33N 37°46' W 122°23'0 0.0
2014-Nov-16 23:33N 37°46' W 122°23'0 0.0
2014-Nov-16 22:33N 37°46' W 122°23'0 0.0
2014-Nov-16 21:33N 37°46' W 122°23'0 0.0
2014-Nov-16 20:33N 37°46' W 122°23'0 0.0
2014-Nov-16 19:33N 37°46' W 122°23'0 0.0
2014-Nov-16 18:33N 37°46' W 122°23'0 0.0
2014-Nov-16 17:33N 37°46' W 122°23'0 0.0
2014-Nov-16 16:33N 37°46' W 122°23'0 0.0
2014-Nov-16 15:33N 37°46' W 122°23'0 0.0
2014-Nov-16 14:33N 37°46' W 122°23'0 0.0
2014-Nov-16 13:33N 37°46' W 122°23'0 0.0
2014-Nov-16 12:33N 37°46' W 122°23'0 0.0
2014-Nov-16 11:33N 37°46' W 122°23'0 0.0
2014-Nov-16 10:33N 37°46' W 122°23'0 0.0
2014-Nov-16 09:33N 37°46' W 122°23'0 0.0
2014-Nov-16 08:33N 37°46' W 122°23'0 0.0
2014-Nov-16 07:33N 37°46' W 122°23'0 0.0
2014-Nov-16 06:33N 37°46' W 122°23'0 0.0
2014-Nov-16 05:34N 37°46' W 122°23'0 0.0
2014-Nov-16 04:33N 37°46' W 122°23'0 0.0
2014-Nov-16 03:33N 37°46' W 122°23'0 0.0
2014-Nov-16 02:33N 37°46' W 122°23'0 0.0
2014-Nov-16 01:33N 37°46' W 122°23'0 0.0
2014-Nov-16 00:33N 37°46' W 122°23'6 5.8
2014-Nov-15 23:33N 37°52' W 122°24'3 3.4
2014-Nov-15 22:33N 37°55' W 122°22'0 0.1
2014-Nov-15 21:33N 37°55' W 122°22'0 0.0
2014-Nov-15 20:33N 37°55' W 122°22'0 0.0
2014-Nov-15 19:33N 37°55' W 122°22'0 0.0
2014-Nov-15 18:33N 37°55' W 122°22'0 0.0
2014-Nov-15 17:33N 37°55' W 122°22'0 0.0
2014-Nov-15 16:33N 37°55' W 122°22'0 0.0
2014-Nov-15 15:33N 37°55' W 122°22'1 1.0
2014-Nov-15 14:33N 37°54' W 122°23'6 6.3
2014-Nov-15 13:33N 37°48' W 122°23'2 1.5
2014-Nov-15 12:33N 37°46' W 122°23'0 0.0
2014-Nov-15 11:33N 37°46' W 122°23'0 0.0
2014-Nov-15 10:33N 37°46' W 122°23'0 0.0
2014-Nov-15 09:33N 37°46' W 122°23'0 0.0
2014-Nov-15 08:33N 37°46' W 122°23'0 0.0
2014-Nov-15 07:33N 37°46' W 122°23'0 0.0
2014-Nov-15 06:33N 37°46' W 122°23'0 0.0
2014-Nov-15 05:33N 37°46' W 122°23'0 0.0
2014-Nov-15 04:33N 37°46' W 122°23'0 0.0
2014-Nov-15 03:33N 37°46' W 122°23'0 0.0
2014-Nov-15 02:33N 37°46' W 122°23'1 1.0
2014-Nov-15 01:33N 37°46' W 122°22'2 1.9
2014-Nov-15 00:33N 37°44' W 122°21'0 0.0
2014-Nov-14 23:33N 37°44' W 122°21'0 0.0
2014-Nov-14 22:33N 37°44' W 122°21'0 0.0
2014-Nov-14 21:33N 37°44' W 122°21'0 0.1
2014-Nov-14 20:33N 37°44' W 122°21'0 0.1
2014-Nov-14 19:33N 37°45' W 122°21'0 0.0
2014-Nov-14 18:33N 37°45' W 122°21'0 0.0
2014-Nov-14 17:33N 37°45' W 122°21'0 0.0
2014-Nov-14 16:33N 37°45' W 122°21'0 0.1
2014-Nov-14 15:33N 37°44' W 122°21'0 0.0
2014-Nov-14 14:33N 37°44' W 122°21'3 0.1
2014-Nov-13 03:21N 37°46' W 122°23'4 4.8
2014-Nov-13 02:33N 37°50' W 122°24'5 5.2
2014-Nov-13 01:33N 37°55' W 122°25'5 5.1
2014-Nov-13 00:33N 37°50' W 122°24'4 0.2
2014-Nov-12 03:34N 37°46' W 122°23'3 2.8
2014-Nov-12 02:33N 37°49' W 122°24'  

Dump ship's entire track history